Orbital elements of FENGYUN 1C DEB
| Launched | 9 May 1999 |
| Flight ended | – |
| Launch site | Taiyuan Space Center, PRC |
| Owner | People's Republic of China |
| NORAD ID | 30762 |
| Date fetched |
Epoch osculation |
Inc. [°] |
Ecc. | RA asc node [hr] |
Arg Peri. [°] |
Mean anom [°] |
Mean motion [rev/day] |
Abs. mag |
| Date fetched |
Epoch osculation |
Inc. [°] |
Ecc. | RA asc node [hr] |
Arg Peri. [°] |
Mean anom [°] |
Mean motion [rev/day] |
Abs. mag |
| 2026 May 06 17:57 | 2026 May 03 22:39:32 | 98.8866 | 0.01968 | 7.6854 | 261.5062 | 124.5563 | 13.98303 | – |
| 2026 May 05 17:57 | 2026 May 03 22:39:32 | 98.8866 | 0.01968 | 7.6854 | 261.5062 | 124.5563 | 13.98303 | – |
| 2026 May 04 17:57 | 2026 Apr 29 22:29:35 | 98.8868 | 0.01968 | 7.4264 | 272.6908 | 124.5563 | 13.98303 | – |
| 2026 May 03 17:57 | 2026 Apr 29 22:29:35 | 98.8868 | 0.01968 | 7.4264 | 272.6908 | 124.5563 | 13.98303 | – |
| 2026 May 02 17:57 | 2026 Apr 29 22:29:35 | 98.8868 | 0.01968 | 7.4264 | 272.6908 | 124.5563 | 13.98303 | – |
| 2026 May 01 17:56 | 2026 Apr 29 22:29:35 | 98.8868 | 0.01968 | 7.4264 | 272.6908 | 124.5563 | 13.98303 | – |
| 2026 Apr 30 17:56 | 2026 Apr 29 22:29:35 | 98.8868 | 0.01968 | 7.4264 | 272.6908 | 124.5563 | 13.98303 | – |
| 2026 Apr 29 17:57 | 2026 Apr 24 05:02:42 | 98.8870 | 0.01967 | 7.0561 | 288.6794 | 124.5563 | 13.98303 | – |
| 2026 Apr 28 17:56 | 2026 Apr 24 05:02:42 | 98.8870 | 0.01967 | 7.0561 | 288.6794 | 124.5563 | 13.98303 | – |
| 2026 Apr 27 17:58 | 2026 Apr 24 05:02:42 | 98.8870 | 0.01967 | 7.0561 | 288.6794 | 124.5563 | 13.98303 | – |
| 2026 Apr 26 17:58 | 2026 Apr 24 05:02:42 | 98.8870 | 0.01967 | 7.0561 | 288.6794 | 124.5563 | 13.98303 | – |
| 2026 Apr 25 17:58 | 2026 Apr 24 05:02:42 | 98.8870 | 0.01967 | 7.0561 | 288.6794 | 124.5563 | 13.98303 | – |
| 2026 Apr 24 17:59 | 2026 Apr 24 05:02:42 | 98.8870 | 0.01967 | 7.0561 | 288.6794 | 124.5563 | 13.98303 | – |
| 2026 Apr 23 17:57 | 2026 Apr 18 21:59:04 | 98.8868 | 0.01969 | 6.7138 | 303.4544 | 124.5563 | 13.98303 | – |
| 2026 Apr 22 17:57 | 2026 Apr 18 21:59:04 | 98.8868 | 0.01969 | 6.7138 | 303.4544 | 124.5563 | 13.98303 | – |
| 2026 Apr 21 17:57 | 2026 Apr 18 21:59:04 | 98.8868 | 0.01969 | 6.7138 | 303.4544 | 124.5563 | 13.98303 | – |
| 2026 Apr 20 17:57 | 2026 Apr 18 21:59:04 | 98.8868 | 0.01969 | 6.7138 | 303.4544 | 124.5563 | 13.98303 | – |
| 2026 Apr 19 17:58 | 2026 Apr 18 21:59:04 | 98.8868 | 0.01969 | 6.7138 | 303.4544 | 124.5563 | 13.98303 | – |
| 2026 Apr 18 17:56 | 2026 Apr 12 17:21:05 | 98.8863 | 0.01971 | 6.3135 | 320.6519 | 124.5563 | 13.98303 | – |
| 2026 Apr 16 17:57 | 2026 Apr 12 17:21:05 | 98.8863 | 0.01971 | 6.3135 | 320.6519 | 124.5563 | 13.98303 | – |
| 2026 Apr 14 17:57 | 2026 Apr 12 17:21:05 | 98.8863 | 0.01971 | 6.3135 | 320.6519 | 124.5563 | 13.98303 | – |
| 2026 Apr 13 17:57 | 2026 Apr 12 17:21:05 | 98.8863 | 0.01971 | 6.3135 | 320.6519 | 124.5563 | 13.98303 | – |
| 2026 Apr 12 17:57 | 2026 Apr 08 06:05:01 | 98.8858 | 0.01974 | 6.0246 | 333.0064 | 124.5563 | 13.98303 | – |
| 2026 Apr 11 17:57 | 2026 Apr 08 06:05:01 | 98.8858 | 0.01974 | 6.0246 | 333.0064 | 124.5563 | 13.98303 | – |
| 2026 Apr 10 17:58 | 2026 Apr 08 06:05:01 | 98.8858 | 0.01974 | 6.0246 | 333.0064 | 124.5563 | 13.98303 | – |
| 2026 Apr 09 18:01 | 2026 Apr 08 06:05:01 | 98.8858 | 0.01974 | 6.0246 | 333.0064 | 124.5563 | 13.98303 | – |